BTK6761 WAAA-WADD
Flight info
| Callsign | BTK6761 |
|---|---|
| Flight time | N/A |
| Altitude | 34000 |
| Route | LIPOT W41 PEDET |
| Aircraft | A320/M-SDE3FGHIRWY/LB1 |
Departure
| Time | 2026-05-06 03:25 |
|---|---|
| Airport | Sultan Hasanuddin International Airport (WAAA) |
Arrival
| Time | N/A |
|---|---|
| Airport | Denpasar I Gusti Ngurah Rai International Airport (WADD) |
| Time | Latitude | Longitude | Altitude | Speed | Heading |
|---|---|---|---|---|---|
| 2026-05-06 03:14 | -5.08164 | 119.54502 | 41 ft | 0 kts | 299° |
| 2026-05-06 03:18 | -5.08171 | 119.54514 | 41 ft | 4 kts | 297° |
| 2026-05-06 03:18 | -5.08182 | 119.54539 | 37 ft | 4 kts | 286° |
| 2026-05-06 03:18 | -5.08186 | 119.54564 | 38 ft | 4 kts | 249° |
| 2026-05-06 03:18 | -5.08179 | 119.54575 | 38 ft | 0 kts | 210° |
| 2026-05-06 03:21 | -5.08181 | 119.54574 | 37 ft | 2 kts | 210° |
| 2026-05-06 03:21 | -5.08204 | 119.54561 | 39 ft | 6 kts | 210° |
| 2026-05-06 03:21 | -5.08256 | 119.54530 | 41 ft | 11 kts | 210° |
| 2026-05-06 03:22 | -5.08339 | 119.54482 | 41 ft | 16 kts | 210° |
| 2026-05-06 03:22 | -5.08448 | 119.54419 | 41 ft | 17 kts | 210° |
| 2026-05-06 03:22 | -5.08528 | 119.54449 | 41 ft | 14 kts | 119° |
| 2026-05-06 03:22 | -5.08571 | 119.54526 | 41 ft | 12 kts | 120° |
| 2026-05-06 03:23 | -5.08655 | 119.54532 | 42 ft | 17 kts | 208° |
| 2026-05-06 03:23 | -5.08771 | 119.54466 | 39 ft | 21 kts | 210° |
| 2026-05-06 03:23 | -5.08902 | 119.54389 | 41 ft | 23 kts | 210° |
| 2026-05-06 03:23 | -5.09043 | 119.54308 | 41 ft | 24 kts | 210° |
| 2026-05-06 03:24 | -5.09148 | 119.54279 | 41 ft | 13 kts | 157° |
| 2026-05-06 03:24 | -5.09194 | 119.54343 | 42 ft | 11 kts | 121° |
| 2026-05-06 03:24 | -5.09226 | 119.54403 | 42 ft | 8 kts | 98° |
| 2026-05-06 03:24 | -5.09193 | 119.54426 | 42 ft | 8 kts | 28° |
| 2026-05-06 03:25 | -5.08983 | 119.54546 | 44 ft | 72 kts | 30° |
| 2026-05-06 03:25 | -5.08355 | 119.54907 | 40 ft | 134 kts | 30° |
| 2026-05-06 03:25 | -5.07404 | 119.55423 | 214 ft | 167 kts | 27° |
| 2026-05-06 03:25 | -5.06356 | 119.55918 | 938 ft | 167 kts | 14° |
| 2026-05-06 03:26 | -5.05204 | 119.55918 | 1604 ft | 167 kts | 352° |
| 2026-05-06 03:26 | -5.03986 | 119.55829 | 1973 ft | 187 kts | 359° |
| 2026-05-06 03:26 | -5.02607 | 119.55816 | 2278 ft | 211 kts | 1° |
| 2026-05-06 03:26 | -5.01059 | 119.55827 | 2689 ft | 235 kts | 2° |
| 2026-05-06 03:27 | -4.99340 | 119.55846 | 3143 ft | 259 kts | 2° |
| 2026-05-06 03:27 | -4.97500 | 119.55770 | 3830 ft | 271 kts | 349° |
| 2026-05-06 03:27 | -4.95837 | 119.54842 | 4649 ft | 283 kts | 314° |
| 2026-05-06 03:27 | -4.94905 | 119.53103 | 5450 ft | 291 kts | 282° |
| 2026-05-06 03:28 | -4.94762 | 119.51067 | 6306 ft | 296 kts | 267° |
| 2026-05-06 03:28 | -4.94942 | 119.48998 | 7127 ft | 299 kts | 263° |
| 2026-05-06 03:28 | -4.95178 | 119.46918 | 7972 ft | 301 kts | 263° |
| 2026-05-06 03:28 | -4.95356 | 119.44821 | 8813 ft | 303 kts | 266° |
| 2026-05-06 03:29 | -4.95450 | 119.42698 | 9671 ft | 306 kts | 268° |
| 2026-05-06 03:29 | -4.95472 | 119.40546 | 10255 ft | 317 kts | 270° |
| 2026-05-06 03:29 | -4.95444 | 119.38254 | 10485 ft | 340 kts | 271° |
| 2026-05-06 03:29 | -4.95382 | 119.35817 | 10792 ft | 357 kts | 271° |
| 2026-05-06 03:30 | -4.95307 | 119.33357 | 11384 ft | 363 kts | 271° |
| 2026-05-06 03:30 | -4.95230 | 119.30872 | 12039 ft | 367 kts | 271° |
| 2026-05-06 03:30 | -4.95153 | 119.28305 | 12702 ft | 370 kts | 271° |
| 2026-05-06 03:30 | -4.95080 | 119.25712 | 13363 ft | 374 kts | 271° |
| 2026-05-06 03:31 | -4.95011 | 119.23091 | 13975 ft | 377 kts | 271° |
| 2026-05-06 03:31 | -4.94945 | 119.20451 | 14552 ft | 380 kts | 271° |
| 2026-05-06 03:31 | -4.94881 | 119.17796 | 15139 ft | 383 kts | 271° |
| 2026-05-06 03:31 | -4.94818 | 119.15116 | 15718 ft | 386 kts | 271° |
| 2026-05-06 03:32 | -4.94754 | 119.12451 | 16280 ft | 389 kts | 271° |
| 2026-05-06 03:32 | -4.94685 | 119.09724 | 16842 ft | 392 kts | 271° |
| 2026-05-06 03:32 | -4.94613 | 119.06985 | 17396 ft | 395 kts | 271° |
| 2026-05-06 03:32 | -4.94538 | 119.04224 | 17941 ft | 398 kts | 271° |
| 2026-05-06 03:33 | -4.94464 | 119.01441 | 18431 ft | 401 kts | 271° |
| 2026-05-06 03:33 | -4.94392 | 118.98636 | 18877 ft | 404 kts | 271° |
| 2026-05-06 03:33 | -4.94322 | 118.95807 | 19315 ft | 407 kts | 271° |
| 2026-05-06 03:33 | -4.94252 | 118.92960 | 19742 ft | 410 kts | 271° |
| 2026-05-06 03:34 | -4.94181 | 118.90088 | 20163 ft | 413 kts | 271° |
| 2026-05-06 03:34 | -4.94109 | 118.87199 | 20579 ft | 416 kts | 271° |
| 2026-05-06 03:34 | -4.94035 | 118.84285 | 20994 ft | 419 kts | 272° |
| 2026-05-06 03:34 | -4.93958 | 118.81356 | 21399 ft | 423 kts | 272° |
| 2026-05-06 03:35 | -4.93963 | 118.78394 | 21789 ft | 426 kts | 265° |
| 2026-05-06 03:35 | -4.94478 | 118.75462 | 22171 ft | 429 kts | 254° |
| 2026-05-06 03:35 | -4.95527 | 118.72711 | 22537 ft | 432 kts | 243° |
| 2026-05-06 03:35 | -4.97109 | 118.70148 | 22903 ft | 434 kts | 232° |
| 2026-05-06 03:36 | -4.99005 | 118.67775 | 23267 ft | 437 kts | 231° |
| 2026-05-06 03:36 | -5.00913 | 118.65387 | 23618 ft | 440 kts | 231° |
| 2026-05-06 03:36 | -5.02822 | 118.62978 | 23951 ft | 442 kts | 231° |
| 2026-05-06 03:36 | -5.04732 | 118.60558 | 24292 ft | 443 kts | 231° |
| 2026-05-06 03:37 | -5.06647 | 118.58132 | 24636 ft | 445 kts | 231° |
| 2026-05-06 03:37 | -5.08575 | 118.55699 | 24979 ft | 446 kts | 231° |
| 2026-05-06 03:37 | -5.10508 | 118.53269 | 25320 ft | 447 kts | 230° |
| 2026-05-06 03:37 | -5.12450 | 118.50829 | 25644 ft | 448 kts | 230° |
| 2026-05-06 03:38 | -5.14399 | 118.48378 | 25978 ft | 449 kts | 230° |
| 2026-05-06 03:38 | -5.16348 | 118.45924 | 26303 ft | 450 kts | 230° |
| 2026-05-06 03:38 | -5.18299 | 118.43461 | 26626 ft | 451 kts | 230° |
| 2026-05-06 03:38 | -5.20251 | 118.40992 | 26958 ft | 452 kts | 230° |
| 2026-05-06 03:39 | -5.22213 | 118.38514 | 27285 ft | 453 kts | 230° |
| 2026-05-06 03:39 | -5.24275 | 118.36133 | 27608 ft | 453 kts | 223° |
| 2026-05-06 03:39 | -5.26683 | 118.34104 | 27923 ft | 452 kts | 215° |
| 2026-05-06 03:39 | -5.29222 | 118.32232 | 28246 ft | 453 kts | 215° |
| 2026-05-06 03:40 | -5.31760 | 118.30348 | 28542 ft | 454 kts | 215° |
| 2026-05-06 03:40 | -5.34301 | 118.28452 | 28837 ft | 455 kts | 216° |
| 2026-05-06 03:40 | -5.36845 | 118.26550 | 29127 ft | 456 kts | 216° |
| 2026-05-06 03:40 | -5.39392 | 118.24649 | 29415 ft | 457 kts | 216° |
| 2026-05-06 03:41 | -5.41953 | 118.22740 | 29701 ft | 458 kts | 216° |
| 2026-05-06 03:41 | -5.44516 | 118.20834 | 29966 ft | 460 kts | 216° |
| 2026-05-06 03:41 | -5.47093 | 118.18921 | 30189 ft | 461 kts | 216° |
| 2026-05-06 03:41 | -5.49670 | 118.17006 | 30406 ft | 463 kts | 215° |
| 2026-05-06 03:42 | -5.52265 | 118.15076 | 30617 ft | 464 kts | 215° |
| 2026-05-06 03:42 | -5.54854 | 118.13154 | 30916 ft | 463 kts | 214° |
| 2026-05-06 03:42 | -5.57604 | 118.11488 | 31174 ft | 462 kts | 205° |
| 2026-05-06 03:42 | -5.60544 | 118.10189 | 31429 ft | 462 kts | 202° |
| 2026-05-06 03:43 | -5.63494 | 118.08911 | 31683 ft | 463 kts | 202° |
| 2026-05-06 03:43 | -5.66374 | 118.07655 | 31945 ft | 463 kts | 202° |
| 2026-05-06 03:43 | -5.69326 | 118.06362 | 32215 ft | 464 kts | 202° |
| 2026-05-06 03:43 | -5.72286 | 118.05062 | 32485 ft | 464 kts | 202° |
| 2026-05-06 03:44 | -5.75245 | 118.03763 | 32749 ft | 465 kts | 202° |
| 2026-05-06 03:44 | -5.78171 | 118.02478 | 33018 ft | 465 kts | 203° |
| 2026-05-06 03:44 | -5.81136 | 118.01173 | 33291 ft | 466 kts | 203° |
| 2026-05-06 03:44 | -5.84107 | 117.99864 | 33570 ft | 466 kts | 202° |
| 2026-05-06 03:45 | -5.87080 | 117.98558 | 33820 ft | 467 kts | 202° |
| 2026-05-06 03:45 | -5.90059 | 117.97256 | 33890 ft | 466 kts | 202° |
| 2026-05-06 03:45 | -5.95987 | 117.94665 | 33895 ft | 464 kts | 203° |
| 2026-05-06 03:46 | -6.01892 | 117.92074 | 33892 ft | 463 kts | 203° |
| 2026-05-06 03:46 | -6.07795 | 117.89481 | 33887 ft | 463 kts | 203° |
| 2026-05-06 03:47 | -6.13698 | 117.86893 | 33890 ft | 463 kts | 203° |
| 2026-05-06 03:47 | -6.19600 | 117.84310 | 33892 ft | 463 kts | 203° |
| 2026-05-06 03:48 | -6.25492 | 117.81726 | 33893 ft | 462 kts | 203° |
| 2026-05-06 03:48 | -6.31386 | 117.79134 | 33897 ft | 462 kts | 204° |
| 2026-05-06 03:49 | -6.37270 | 117.76543 | 33898 ft | 461 kts | 204° |
| 2026-05-06 03:49 | -6.43152 | 117.73963 | 33897 ft | 461 kts | 204° |
| 2026-05-06 03:50 | -6.49028 | 117.71382 | 33903 ft | 460 kts | 204° |
| 2026-05-06 03:50 | -6.54889 | 117.68801 | 33899 ft | 459 kts | 204° |
| 2026-05-06 03:51 | -6.60744 | 117.66222 | 33899 ft | 459 kts | 204° |
| 2026-05-06 03:51 | -6.66495 | 117.63483 | 33899 ft | 457 kts | 213° |
| 2026-05-06 03:52 | -6.71234 | 117.59285 | 33900 ft | 455 kts | 230° |
| 2026-05-06 03:52 | -6.75307 | 117.54421 | 33910 ft | 454 kts | 230° |
| 2026-05-06 03:53 | -6.79392 | 117.49574 | 33902 ft | 454 kts | 230° |
| 2026-05-06 03:53 | -6.83475 | 117.44735 | 33911 ft | 453 kts | 230° |
| 2026-05-06 03:54 | -6.87548 | 117.39903 | 33905 ft | 452 kts | 230° |
| 2026-05-06 03:54 | -6.91612 | 117.35073 | 33904 ft | 452 kts | 230° |
| 2026-05-06 03:55 | -6.95673 | 117.30253 | 33897 ft | 452 kts | 230° |
| 2026-05-06 03:55 | -6.99733 | 117.25428 | 33890 ft | 451 kts | 230° |
| 2026-05-06 03:56 | -7.03784 | 117.20602 | 33889 ft | 451 kts | 230° |
| 2026-05-06 03:56 | -7.07832 | 117.15783 | 33887 ft | 451 kts | 230° |
| 2026-05-06 03:57 | -7.11888 | 117.10967 | 33886 ft | 451 kts | 230° |
| 2026-05-06 03:57 | -7.15931 | 117.06148 | 33886 ft | 450 kts | 230° |
| 2026-05-06 03:58 | -7.19963 | 117.01329 | 33883 ft | 450 kts | 230° |
| 2026-05-06 03:58 | -7.23982 | 116.96543 | 33873 ft | 451 kts | 230° |
| 2026-05-06 03:59 | -7.28041 | 116.91708 | 33868 ft | 453 kts | 230° |
| 2026-05-06 03:59 | -7.32108 | 116.86869 | 33865 ft | 448 kts | 230° |
| 2026-05-06 04:00 | -7.34079 | 116.84524 | 33726 ft | 430 kts | 230° |
| 2026-05-06 04:00 | -7.35995 | 116.82245 | 32953 ft | 422 kts | 230° |
| 2026-05-06 04:00 | -7.37884 | 116.79997 | 31968 ft | 420 kts | 230° |
| 2026-05-06 04:00 | -7.39792 | 116.77722 | 30881 ft | 421 kts | 230° |
| 2026-05-06 04:01 | -7.41658 | 116.75492 | 29762 ft | 423 kts | 230° |
| 2026-05-06 04:01 | -7.43556 | 116.73222 | 28627 ft | 421 kts | 230° |
| 2026-05-06 04:01 | -7.45451 | 116.70958 | 27279 ft | 429 kts | 230° |
| 2026-05-06 04:01 | -7.46753 | 116.69401 | 26813 ft | 429 kts | 230° |
| 2026-05-06 04:02 | -7.48671 | 116.67108 | 26232 ft | 426 kts | 230° |
| 2026-05-06 04:02 | -7.50574 | 116.64839 | 25645 ft | 423 kts | 230° |
| 2026-05-06 04:02 | -7.53135 | 116.61834 | 24857 ft | 421 kts | 229° |
| 2026-05-06 04:02 | -7.54416 | 116.60369 | 24432 ft | 420 kts | 229° |
| 2026-05-06 04:03 | -7.56360 | 116.58180 | 23886 ft | 418 kts | 228° |
| 2026-05-06 04:03 | -7.58299 | 116.56011 | 23316 ft | 416 kts | 228° |
| 2026-05-06 04:03 | -7.60230 | 116.53844 | 22705 ft | 413 kts | 229° |
| 2026-05-06 04:03 | -7.62134 | 116.51696 | 22156 ft | 409 kts | 229° |
| 2026-05-06 04:04 | -7.64016 | 116.49566 | 21653 ft | 405 kts | 229° |
| 2026-05-06 04:04 | -7.65876 | 116.47452 | 21148 ft | 401 kts | 229° |
| 2026-05-06 04:04 | -7.67696 | 116.45381 | 20902 ft | 399 kts | 229° |
| 2026-05-06 04:04 | -7.69559 | 116.43261 | 20884 ft | 399 kts | 229° |
| 2026-05-06 04:05 | -7.71377 | 116.41193 | 20893 ft | 399 kts | 229° |
| 2026-05-06 04:05 | -7.73217 | 116.39100 | 20892 ft | 399 kts | 229° |
| 2026-05-06 04:05 | -7.75060 | 116.37004 | 20896 ft | 399 kts | 229° |
| 2026-05-06 04:05 | -7.76903 | 116.34910 | 20891 ft | 399 kts | 229° |
| 2026-05-06 04:06 | -7.78741 | 116.32816 | 20890 ft | 399 kts | 229° |
| 2026-05-06 04:06 | -7.80545 | 116.30690 | 20887 ft | 398 kts | 234° |
| 2026-05-06 04:06 | -7.81964 | 116.28300 | 20894 ft | 398 kts | 246° |
| 2026-05-06 04:06 | -7.82864 | 116.25670 | 20892 ft | 397 kts | 257° |
| 2026-05-06 04:07 | -7.83228 | 116.22916 | 20893 ft | 397 kts | 267° |
| 2026-05-06 04:07 | -7.83358 | 116.20125 | 20890 ft | 398 kts | 267° |
| 2026-05-06 04:07 | -7.83488 | 116.17341 | 20893 ft | 398 kts | 267° |
| 2026-05-06 04:07 | -7.83616 | 116.14557 | 20892 ft | 398 kts | 267° |
| 2026-05-06 04:08 | -7.83747 | 116.11769 | 20893 ft | 398 kts | 267° |
| 2026-05-06 04:08 | -7.83879 | 116.08982 | 20891 ft | 398 kts | 267° |
| 2026-05-06 04:08 | -7.84011 | 116.06193 | 20891 ft | 398 kts | 267° |
| 2026-05-06 04:08 | -7.84139 | 116.03426 | 20489 ft | 393 kts | 267° |
| 2026-05-06 04:09 | -7.84268 | 116.00678 | 19989 ft | 390 kts | 267° |
| 2026-05-06 04:09 | -7.84399 | 115.97957 | 19516 ft | 387 kts | 267° |
| 2026-05-06 04:09 | -7.84532 | 115.95252 | 19057 ft | 384 kts | 267° |
| 2026-05-06 04:09 | -7.84660 | 115.92575 | 18608 ft | 381 kts | 267° |
| 2026-05-06 04:10 | -7.84784 | 115.89914 | 18158 ft | 379 kts | 267° |
| 2026-05-06 04:10 | -7.84903 | 115.87268 | 17656 ft | 376 kts | 266° |
| 2026-05-06 04:10 | -7.85021 | 115.84647 | 17153 ft | 374 kts | 266° |
| 2026-05-06 04:10 | -7.85140 | 115.82033 | 16653 ft | 372 kts | 266° |
| 2026-05-06 04:11 | -7.85261 | 115.79434 | 16164 ft | 370 kts | 266° |
| 2026-05-06 04:11 | -7.85385 | 115.76847 | 15686 ft | 369 kts | 266° |
| 2026-05-06 04:11 | -7.85508 | 115.74269 | 15209 ft | 367 kts | 266° |
| 2026-05-06 04:11 | -7.85628 | 115.71700 | 14930 ft | 367 kts | 265° |
| 2026-05-06 04:12 | -7.85744 | 115.69127 | 14877 ft | 367 kts | 266° |
| 2026-05-06 04:12 | -7.85862 | 115.66546 | 14892 ft | 369 kts | 266° |
| 2026-05-06 04:12 | -7.85980 | 115.63998 | 14888 ft | 369 kts | 266° |
| 2026-05-06 04:12 | -7.86101 | 115.61418 | 14893 ft | 369 kts | 266° |
| 2026-05-06 04:13 | -7.86221 | 115.58837 | 14883 ft | 369 kts | 266° |
| 2026-05-06 04:13 | -7.86342 | 115.56251 | 14885 ft | 369 kts | 266° |
| 2026-05-06 04:13 | -7.86464 | 115.53633 | 14891 ft | 369 kts | 266° |
| 2026-05-06 04:13 | -7.86583 | 115.51047 | 14890 ft | 369 kts | 266° |
| 2026-05-06 04:14 | -7.86702 | 115.48466 | 14893 ft | 369 kts | 266° |
| 2026-05-06 04:14 | -7.86821 | 115.45883 | 14892 ft | 369 kts | 266° |
| 2026-05-06 04:14 | -7.86940 | 115.43295 | 14893 ft | 369 kts | 266° |
| 2026-05-06 04:14 | -7.87061 | 115.40710 | 14883 ft | 369 kts | 266° |
| 2026-05-06 04:15 | -7.87183 | 115.38125 | 14893 ft | 369 kts | 266° |
| 2026-05-06 04:15 | -7.87305 | 115.35542 | 14881 ft | 369 kts | 266° |
| 2026-05-06 04:15 | -7.87425 | 115.32959 | 14888 ft | 369 kts | 266° |
| 2026-05-06 04:15 | -7.87543 | 115.30415 | 14893 ft | 369 kts | 266° |
| 2026-05-06 04:16 | -7.87661 | 115.27788 | 14886 ft | 369 kts | 266° |
| 2026-05-06 04:16 | -7.87776 | 115.25202 | 14891 ft | 369 kts | 266° |
| 2026-05-06 04:16 | -7.87892 | 115.22617 | 14891 ft | 369 kts | 266° |
| 2026-05-06 04:16 | -7.88008 | 115.20033 | 14893 ft | 369 kts | 266° |
| 2026-05-06 04:17 | -7.88310 | 115.17470 | 14892 ft | 368 kts | 256° |
| 2026-05-06 04:17 | -7.89126 | 115.15039 | 14887 ft | 366 kts | 244° |
| 2026-05-06 04:17 | -7.90407 | 115.12829 | 14892 ft | 365 kts | 233° |
| 2026-05-06 04:17 | -7.91852 | 115.10761 | 14893 ft | 365 kts | 234° |
| 2026-05-06 04:18 | -7.93305 | 115.08653 | 14892 ft | 365 kts | 234° |
| 2026-05-06 04:18 | -7.94746 | 115.06544 | 14896 ft | 365 kts | 234° |
| 2026-05-06 04:18 | -7.96181 | 115.04433 | 14894 ft | 365 kts | 234° |
| 2026-05-06 04:18 | -7.97617 | 115.02318 | 14900 ft | 365 kts | 234° |
| 2026-05-06 04:19 | -7.99056 | 115.00208 | 14898 ft | 365 kts | 234° |
| 2026-05-06 04:19 | -8.00498 | 114.98096 | 14898 ft | 365 kts | 234° |
| 2026-05-06 04:19 | -8.01937 | 114.95989 | 14897 ft | 365 kts | 234° |
| 2026-05-06 04:19 | -8.03377 | 114.93881 | 14898 ft | 365 kts | 234° |
| 2026-05-06 04:20 | -8.04817 | 114.91772 | 14899 ft | 365 kts | 234° |
| 2026-05-06 04:20 | -8.06258 | 114.89660 | 14898 ft | 365 kts | 234° |
| 2026-05-06 04:20 | -8.07701 | 114.87549 | 14724 ft | 365 kts | 234° |
| 2026-05-06 04:20 | -8.09136 | 114.85447 | 14468 ft | 363 kts | 234° |
| 2026-05-06 04:21 | -8.10562 | 114.83356 | 14253 ft | 362 kts | 234° |
| 2026-05-06 04:21 | -8.11988 | 114.81265 | 14030 ft | 361 kts | 234° |
| 2026-05-06 04:21 | -8.13408 | 114.79184 | 13806 ft | 359 kts | 234° |
| 2026-05-06 04:21 | -8.14823 | 114.77111 | 13566 ft | 358 kts | 234° |
| 2026-05-06 04:22 | -8.16232 | 114.75045 | 13342 ft | 357 kts | 234° |
| 2026-05-06 04:22 | -8.17629 | 114.72994 | 13125 ft | 357 kts | 234° |
| 2026-05-06 04:22 | -8.18837 | 114.71220 | 12917 ft | 356 kts | 234° |
| 2026-05-06 04:23 | -8.21570 | 114.67174 | 12450 ft | 355 kts | 234° |
| 2026-05-06 04:23 | -8.22939 | 114.65140 | 12188 ft | 355 kts | 234° |
| 2026-05-06 04:23 | -8.24360 | 114.63059 | 11937 ft | 355 kts | 234° |
| 2026-05-06 04:23 | -8.25765 | 114.61015 | 11705 ft | 354 kts | 233° |
| 2026-05-06 04:24 | -8.27173 | 114.58975 | 11488 ft | 353 kts | 233° |
| 2026-05-06 04:24 | -8.28569 | 114.56943 | 11293 ft | 352 kts | 234° |
| 2026-05-06 04:24 | -8.29933 | 114.54938 | 11078 ft | 351 kts | 234° |
| 2026-05-06 04:24 | -8.30922 | 114.53487 | 10901 ft | 351 kts | 234° |